Time;durP1;ratioP1;P1;durP2;ratioP2;P2;SDS_P1;SDS_P2;PMS_P1;PMS_P2;Temp;Humidity;BMP_temperature;BMP_pressure;BME280_temperature;BME280_humidity;BME280_pressure;Samples;Min_cycle;Max_cycle;Signal;HPM_P1;HPM_P2
2021/12/16 00:09:00;;;;;;;129.55;43.40;;;;;;;8.50;96.37;103411.38;4950597;28;20081;-75
2021/12/16 00:20:14;;;;;;;125.57;44.28;;;;;;;8.46;96.36;103411.94;4956657;28;20049;-75
2021/12/16 00:33:42;;;;;;;127.93;42.88;;;;;;;8.46;96.53;103424.03;4950366;28;20491;-75
2021/12/16 00:36:09;;;;;;;129.63;42.63;;;;;;;8.43;96.49;103422.06;4951162;28;20031;-76
2021/12/16 00:38:36;;;;;;;127.78;43.90;;;;;;;8.43;96.36;103421.13;4950521;28;20119;-75
2021/12/16 00:41:02;;;;;;;123.15;42.35;;;;;;;8.43;96.71;103423.72;4952835;28;20039;-75
2021/12/16 00:49:18;;;;;;;122.10;43.30;;;;;;;8.42;96.73;103421.94;4949003;28;20035;-75
2021/12/16 00:54:12;;;;;;;137.43;44.45;;;;;;;8.42;96.93;103419.34;4952280;28;20042;-75
2021/12/16 00:56:40;;;;;;;122.10;43.33;;;;;;;8.42;96.77;103422.84;4951370;28;20046;-75
2021/12/16 00:59:08;;;;;;;136.40;43.15;;;;;;;8.41;96.79;103426.22;4954583;28;20029;-75
2021/12/16 01:02:00;;;;;;;129.40;43.88;;;;;;;8.42;96.73;103427.16;4948856;28;20392;-75
2021/12/16 01:45:36;;;;;;;121.35;43.67;;;;;;;8.40;97.13;103442.63;4945877;28;20031;-75
2021/12/16 01:45:43;;;;;;;126.10;43.85;;;;;;;8.41;97.09;103446.13;4952371;28;20186;-75
2021/12/16 01:50:51;;;;;;;125.03;43.63;;;;;;;8.41;96.96;103451.31;4952177;28;20387;-75
2021/12/16 01:56:16;;;;;;;129.02;44.58;;;;;;;8.42;97.13;103458.31;4950643;28;20035;-75
2021/12/16 01:58:41;;;;;;;120.07;44.17;;;;;;;8.42;97.11;103451.41;4951045;28;20039;-76
2021/12/16 02:01:20;;;;;;;123.85;44.42;;;;;;;8.42;97.21;103459.22;4950063;28;20026;-76
2021/12/16 02:03:53;;;;;;;133.60;43.92;;;;;;;8.42;97.11;103454.03;4949701;28;20027;-76
2021/12/16 02:08:48;;;;;;;127.45;44.60;;;;;;;8.42;96.83;103473.91;4949917;28;20031;-75
2021/12/16 02:35:35;;;;;;;126.97;44.03;;;;;;;8.36;97.25;103479.53;4950001;28;20126;-76
2021/12/16 02:38:05;;;;;;;124.00;43.00;;;;;;;8.34;97.08;103474.25;4954960;28;20036;-76
2021/12/16 02:40:33;;;;;;;122.53;43.58;;;;;;;8.35;97.25;103477.72;4967970;28;20458;-76
2021/12/16 02:43:09;;;;;;;122.13;43.67;;;;;;;8.35;96.99;103472.53;4956479;28;20498;-75
2021/12/16 02:48:29;;;;;;;121.97;44.50;;;;;;;8.32;97.17;103485.28;4953695;28;20518;-75
2021/12/16 02:51:04;;;;;;;119.93;43.83;;;;;;;8.32;97.21;103493.97;4953685;28;21213;-75
2021/12/16 02:53:29;;;;;;;119.53;44.38;;;;;;;8.33;97.36;103487.13;4954035;28;20593;-75
2021/12/16 02:55:55;;;;;;;127.97;44.05;;;;;;;8.32;97.45;103486.19;4953867;28;20033;-75
2021/12/16 02:58:21;;;;;;;121.05;44.15;;;;;;;8.34;97.35;103488.91;4952942;28;20043;-75
2021/12/16 03:00:52;;;;;;;119.15;43.63;;;;;;;8.34;97.32;103486.31;4950968;28;20106;-75
2021/12/16 03:03:19;;;;;;;116.22;43.35;;;;;;;8.35;97.40;103485.53;4953014;28;20031;-75
2021/12/16 03:05:44;;;;;;;115.07;42.63;;;;;;;8.34;97.44;103486.31;4961607;28;20131;-75
2021/12/16 03:08:09;;;;;;;121.22;43.83;;;;;;;8.34;97.31;103484.63;4953090;28;20696;-75
2021/12/16 03:16:48;;;;;;;122.20;43.97;;;;;;;8.33;97.10;103475.03;4948297;28;20206;-75
2021/12/16 03:19:23;;;;;;;114.45;41.88;;;;;;;8.33;97.25;103480.22;4953389;28;20081;-75
2021/12/16 03:21:53;;;;;;;126.97;44.58;;;;;;;8.34;97.40;103473.31;4952289;28;20067;-75
2021/12/16 03:27:27;;;;;;;113.30;42.92;;;;;;;8.32;97.31;103482.69;4951308;28;20058;-75
2021/12/16 03:30:14;;;;;;;121.57;43.50;;;;;;;8.32;97.17;103485.28;4951933;28;20105;-75
2021/12/16 03:35:29;;;;;;;125.50;44.42;;;;;;;8.31;97.44;103483.47;4953901;28;20027;-75
2021/12/16 03:38:02;;;;;;;119.80;42.00;;;;;;;8.32;97.55;103482.69;4969536;28;20027;-75
2021/12/16 03:40:29;;;;;;;116.30;42.33;;;;;;;8.31;97.35;103480.88;4953059;28;20402;-75
2021/12/16 03:43:06;;;;;;;117.57;43.00;;;;;;;8.30;97.51;103480.00;4953798;28;20057;-75
2021/12/16 03:48:37;;;;;;;121.55;42.22;;;;;;;8.32;97.57;103488.78;4953060;28;20038;-75
2021/12/16 03:51:16;;;;;;;120.35;42.85;;;;;;;8.32;97.73;103493.09;4951540;28;20059;-75
2021/12/16 03:53:43;;;;;;;114.18;42.03;;;;;;;8.33;97.50;103494.91;4952058;28;20031;-75
2021/12/16 03:56:09;;;;;;;117.45;43.40;;;;;;;8.32;97.65;103493.09;4953202;28;20038;-75
2021/12/16 03:58:35;;;;;;;117.88;42.88;;;;;;;8.32;97.60;103503.47;4953021;28;20047;-75
2021/12/16 04:01:04;;;;;;;118.25;43.30;;;;;;;8.31;97.60;103506.84;4954475;28;20031;-75
2021/12/16 04:03:30;;;;;;;115.50;43.88;;;;;;;8.31;97.44;103506.84;4952570;28;20038;-75
2021/12/16 04:05:56;;;;;;;126.82;44.05;;;;;;;8.31;97.65;103501.66;4952553;28;20030;-75
2021/12/16 04:08:21;;;;;;;119.70;43.22;;;;;;;8.32;97.60;103495.69;4953563;28;20031;-76
2021/12/16 04:10:59;;;;;;;116.05;42.83;;;;;;;8.32;97.79;103500.88;4952268;28;20047;-75
2021/12/16 04:13:25;;;;;;;114.55;42.72;;;;;;;8.31;97.48;103507.78;4953148;28;20090;-75
2021/12/16 04:15:50;;;;;;;118.03;41.88;;;;;;;8.32;97.74;103501.78;4951422;28;20031;-76
2021/12/16 04:18:17;;;;;;;114.60;43.63;;;;;;;8.32;97.58;103503.47;4953706;28;20039;-75
2021/12/16 04:20:43;;;;;;;113.30;42.13;;;;;;;8.30;97.43;103507.66;4952924;28;20375;-75
2021/12/16 04:23:11;;;;;;;120.30;43.83;;;;;;;8.30;97.48;103511.16;4952244;28;20039;-75
2021/12/16 04:25:44;;;;;;;120.72;43.17;;;;;;;8.29;97.76;103511.94;4950433;28;20388;-75
2021/12/16 04:28:15;;;;;;;121.97;43.35;;;;;;;8.29;97.57;103506.75;4953771;28;20038;-75
2021/12/16 04:30:41;;;;;;;115.32;42.45;;;;;;;8.28;97.35;103504.03;4950649;28;20070;-75
2021/12/16 04:33:07;;;;;;;111.07;42.67;;;;;;;8.26;97.57;103497.84;4952947;28;20118;-75
2021/12/16 04:35:33;;;;;;;112.28;41.40;;;;;;;8.26;97.70;103508.22;4951759;28;20119;-75
2021/12/16 04:37:59;;;;;;;121.72;43.35;;;;;;;8.24;97.68;103500.31;4952157;28;20125;-75
2021/12/16 04:40:27;;;;;;;124.32;42.63;;;;;;;8.23;97.64;103500.19;4954604;28;20457;-75
2021/12/16 04:42:59;;;;;;;115.38;43.13;;;;;;;8.21;97.49;103499.16;4954505;28;20098;-75
2021/12/16 04:45:25;;;;;;;117.90;42.28;;;;;;;8.21;97.51;103496.56;4947975;28;20058;-76
2021/12/16 04:47:51;;;;;;;122.45;42.67;;;;;;;8.17;97.15;103493.72;4948174;28;20054;-76
2021/12/16 04:50:17;;;;;;;110.32;41.58;;;;;;;8.14;97.32;103493.50;4954107;28;20118;-76
2021/12/16 04:52:42;;;;;;;111.05;42.10;;;;;;;8.13;97.32;103496.88;4952888;28;20023;-75
2021/12/16 04:55:10;;;;;;;118.72;42.78;;;;;;;8.10;97.27;103496.66;4963726;28;20096;-75
2021/12/16 04:57:35;;;;;;;113.25;41.25;;;;;;;8.08;97.06;103497.31;4959946;28;20130;-75
2021/12/16 05:00:01;;;;;;;106.95;39.78;;;;;;;8.03;96.73;103499.56;4960033;28;20106;-75
2021/12/16 05:02:27;;;;;;;105.90;39.70;;;;;;;8.01;96.89;103499.44;4953871;28;20050;-75
2021/12/16 05:04:53;;;;;;;111.15;40.80;;;;;;;7.99;97.25;103497.50;4955935;28;20027;-75
2021/12/16 05:07:22;;;;;;;115.18;42.42;;;;;;;7.96;97.09;103499.88;4952936;28;20015;-75
2021/12/16 05:10:11;;;;;;;114.07;41.58;;;;;;;7.94;97.03;103504.06;4952972;28;20031;-75
2021/12/16 05:12:38;;;;;;;109.03;40.50;;;;;;;7.93;97.38;103502.25;4951503;28;20043;-76
2021/12/16 05:15:10;;;;;;;111.93;41.38;;;;;;;7.91;97.45;103504.72;4949587;28;20035;-75
2021/12/16 05:17:44;;;;;;;114.18;42.03;;;;;;;7.90;97.26;103502.91;4950276;28;20023;-76
2021/12/16 05:20:20;;;;;;;100.63;38.90;;;;;;;7.84;96.92;103500.72;4947840;28;20023;-75
2021/12/16 05:27:55;;;;;;;105.47;41.20;;;;;;;7.72;96.44;103510.19;4959214;28;20022;-75
2021/12/16 05:30:21;;;;;;;104.68;40.72;;;;;;;7.69;96.90;103511.59;4951689;28;20038;-75
2021/12/16 05:32:46;;;;;;;102.10;39.42;;;;;;;7.66;96.47;103523.56;4957953;28;20030;-76
2021/12/16 05:35:17;;;;;;;108.07;41.17;;;;;;;7.60;96.16;103522.16;4954361;28;20023;-75
2021/12/16 05:37:45;;;;;;;101.50;38.75;;;;;;;7.57;96.24;103516.75;4957481;28;20122;-75
2021/12/16 05:40:12;;;;;;;94.85;38.72;;;;;;;7.51;95.84;103517.16;4954196;28;20037;-75
2021/12/16 05:42:37;;;;;;;98.45;39.33;;;;;;;7.47;95.98;103522.88;4957867;28;20066;-75
2021/12/16 05:45:05;;;;;;;109.07;41.08;;;;;;;7.41;95.84;103525.88;4955815;28;20123;-75
2021/12/16 05:47:30;;;;;;;96.70;38.22;;;;;;;7.38;95.80;103533.44;4957340;28;20100;-75
2021/12/16 05:49:56;;;;;;;103.13;39.90;;;;;;;7.35;95.93;103534.88;4952810;28;20035;-75
2021/12/16 05:52:21;;;;;;;93.28;37.90;;;;;;;7.29;95.86;103535.31;4950142;28;20467;-75
2021/12/16 05:54:47;;;;;;;98.00;38.22;;;;;;;7.26;95.91;103537.66;4950400;28;20379;-75
2021/12/16 05:57:12;;;;;;;92.65;37.28;;;;;;;7.22;96.01;103539.06;4951241;28;20501;-75
2021/12/16 05:59:38;;;;;;;96.47;37.55;;;;;;;7.18;95.56;103541.31;4951504;28;20110;-75
2021/12/16 06:02:04;;;;;;;90.50;35.58;;;;;;;7.14;95.54;103545.34;4952183;28;20482;-75
2021/12/16 06:04:29;;;;;;;93.75;35.92;;;;;;;7.10;95.59;103553.66;4953012;28;20035;-76
2021/12/16 06:06:55;;;;;;;86.43;36.20;;;;;;;7.05;95.50;103553.25;4950866;28;20106;-75
2021/12/16 06:09:20;;;;;;;111.63;38.08;;;;;;;7.04;96.15;103569.59;4951461;28;20094;-76
2021/12/16 06:11:47;;;;;;;97.15;37.75;;;;;;;7.01;95.98;103561.59;4953848;28;20055;-75
2021/12/16 06:27:50;;;;;;;80.07;31.45;;;;;;;6.81;96.09;103569.38;4954061;28;20078;-76
2021/12/16 06:30:28;;;;;;;75.55;25.42;;;;;;;6.75;94.74;103574.97;4954137;28;20030;-76
2021/12/16 06:32:54;;;;;;;129.68;29.58;;;;;;;6.66;95.86;103575.09;4954089;28;20479;-76
2021/12/16 06:35:20;;;;;;;100.03;29.85;;;;;;;6.63;95.98;103580.03;4955246;28;20556;-75
2021/12/16 06:37:45;;;;;;;135.98;25.20;;;;;;;6.54;95.28;103584.44;4953452;28;20035;-76
2021/12/16 06:40:12;;;;;;;135.18;28.45;;;;;;;6.43;95.64;103576.69;4954045;28;20402;-76
2021/12/16 06:42:40;;;;;;;72.72;27.33;;;;;;;6.41;95.89;103575.63;4954628;28;20042;-76
2021/12/16 06:45:12;;;;;;;61.95;25.55;;;;;;;6.40;95.83;103581.59;4969183;28;20134;-75
2021/12/16 06:47:49;;;;;;;124.68;27.80;;;;;;;6.36;96.14;103579.53;4953595;28;20035;-75
2021/12/16 06:50:28;;;;;;;70.60;30.05;;;;;;;6.33;96.06;103576.69;4952995;28;20512;-76
2021/12/16 06:52:57;;;;;;;291.88;30.48;;;;;;;6.27;94.87;103578.72;4954144;28;20049;-75
2021/12/16 06:57:57;;;;;;;173.38;28.83;;;;;;;6.04;95.26;103575.09;4954926;28;20251;-75
2021/12/16 07:00:36;;;;;;;69.60;27.27;;;;;;;6.03;96.58;103583.63;4951777;28;20027;-76
2021/12/16 07:03:05;;;;;;;219.73;29.05;;;;;;;5.99;95.42;103590.97;4953054;28;20545;-76
2021/12/16 07:05:38;;;;;;;83.67;25.40;;;;;;;5.92;95.29;103590.44;4950661;28;20027;-75
2021/12/16 07:08:07;;;;;;;223.05;30.40;;;;;;;5.86;95.52;103594.16;4955942;28;20046;-76
2021/12/16 07:10:32;;;;;;;73.85;27.63;;;;;;;5.85;95.41;103589.75;4962483;28;20072;-76
2021/12/16 07:13:06;;;;;;;82.25;28.63;;;;;;;5.81;96.02;103592.81;4957653;28;20454;-76
2021/12/16 07:15:32;;;;;;;70.03;29.77;;;;;;;5.82;95.65;103610.19;4953458;28;20109;-75
2021/12/16 07:17:58;;;;;;;159.13;30.35;;;;;;;5.73;94.94;103616.34;4955955;28;20062;-75
2021/12/16 07:20:26;;;;;;;71.07;26.38;;;;;;;5.67;94.88;103609.75;4953126;28;20434;-76
2021/12/16 07:22:52;;;;;;;116.73;27.37;;;;;;;5.63;94.35;103605.97;4970140;28;20038;-76
2021/12/16 07:25:17;;;;;;;49.15;22.75;;;;;;;5.57;94.04;103610.59;4953321;28;20035;-76
2021/12/16 07:27:44;;;;;;;61.95;27.80;;;;;;;5.55;94.64;103618.22;4955320;28;20390;-76
2021/12/16 07:30:12;;;;;;;64.80;27.63;;;;;;;5.52;95.10;103630.00;4959266;28;20027;-76
2021/12/16 07:32:38;;;;;;;119.65;31.00;;;;;;;5.53;95.79;103631.78;4953521;28;20043;-75
2021/12/16 07:35:08;;;;;;;134.32;28.10;;;;;;;5.50;95.07;103636.69;4961351;28;20027;-75
2021/12/16 07:37:34;;;;;;;97.07;28.02;;;;;;;5.44;94.42;103649.97;4958143;28;20074;-76
2021/12/16 07:40:05;;;;;;;57.38;24.75;;;;;;;5.37;93.77;103650.19;4948909;28;20139;-75
2021/12/16 07:42:42;;;;;;;67.97;26.75;;;;;;;5.31;94.22;103649.66;4951803;28;20035;-76
2021/12/16 07:45:08;;;;;;;152.20;31.65;;;;;;;5.31;95.31;103653.13;4951495;28;20024;-75
2021/12/16 07:47:33;;;;;;;106.00;28.80;;;;;;;5.32;95.27;103657.53;4951046;28;20482;-76
2021/12/16 07:49:58;;;;;;;71.40;27.88;;;;;;;5.28;94.82;103659.72;4953729;28;20066;-75
2021/12/16 07:52:24;;;;;;;59.75;25.10;;;;;;;5.22;94.66;103663.53;4950162;28;20062;-76
2021/12/16 07:54:49;;;;;;;57.13;24.10;;;;;;;5.19;93.91;103678.78;4953595;28;20394;-75
2021/12/16 07:57:14;;;;;;;64.82;25.55;;;;;;;5.15;93.78;103679.25;4948794;28;20046;-75
2021/12/16 07:59:41;;;;;;;47.13;21.35;;;;;;;5.09;92.91;103680.38;4953352;28;20125;-75
2021/12/16 08:02:11;;;;;;;47.38;20.95;;;;;;;5.03;92.61;103691.97;4949776;28;20039;-75
2021/12/16 08:04:42;;;;;;;49.15;20.55;;;;;;;4.98;92.49;103693.22;4953550;28;20054;-75
2021/12/16 08:07:10;;;;;;;42.08;19.42;;;;;;;4.93;92.17;103698.75;4954066;28;20034;-75
2021/12/16 08:09:40;;;;;;;44.45;20.48;;;;;;;4.88;92.77;103695.69;4949109;28;20027;-75
2021/12/16 08:12:07;;;;;;;48.83;22.55;;;;;;;4.85;93.05;103704.09;4946347;28;20521;-76
2021/12/16 08:14:33;;;;;;;72.35;24.25;;;;;;;4.87;93.49;103706.81;4950027;28;20046;-75
2021/12/16 08:16:58;;;;;;;181.85;61.65;;;;;;;4.90;93.75;103698.47;4948670;28;20046;-76
2021/12/16 08:19:24;;;;;;;102.30;33.88;;;;;;;4.89;94.61;103705.28;4954971;28;20038;-75
2021/12/16 08:21:50;;;;;;;240.80;71.72;;;;;;;4.94;94.89;103714.38;4952585;28;20486;-76
2021/12/16 08:24:17;;;;;;;288.02;89.53;;;;;;;4.94;95.15;103711.81;4954957;28;20082;-76
2021/12/16 08:26:45;;;;;;;136.02;29.90;;;;;;;4.97;94.94;103717.25;4954134;28;20585;-76
2021/12/16 08:29:10;;;;;;;136.70;28.15;;;;;;;4.93;94.48;103720.31;4953222;28;20019;-76
2021/12/16 08:31:36;;;;;;;89.60;29.92;;;;;;;4.93;95.04;103720.31;4951597;28;20505;-75
2021/12/16 08:34:02;;;;;;;82.10;28.00;;;;;;;4.93;94.89;103725.47;4954928;28;20086;-75
2021/12/16 08:36:28;;;;;;;128.75;30.23;;;;;;;4.95;94.51;103723.94;4954083;28;20057;-75
2021/12/16 08:38:54;;;;;;;63.20;28.85;;;;;;;4.97;94.72;103725.00;4954547;28;20062;-76
2021/12/16 08:41:26;;;;;;;85.63;28.77;;;;;;;5.00;95.07;103733.03;4952121;28;20097;-76
2021/12/16 08:43:52;;;;;;;95.85;30.17;;;;;;;5.04;95.14;103735.13;4951941;28;20055;-75
2021/12/16 08:46:21;;;;;;;72.70;30.00;;;;;;;5.08;94.96;103725.09;4954171;28;20523;-75
2021/12/16 08:48:47;;;;;;;64.82;26.52;;;;;;;5.10;94.46;103734.81;4953319;28;20102;-76
2021/12/16 08:51:16;;;;;;;65.25;26.30;;;;;;;5.13;94.59;103741.94;4948962;28;20027;-75
2021/12/16 08:53:41;;;;;;;75.57;27.52;;;;;;;5.16;94.59;103740.53;4951397;28;20027;-75
2021/12/16 08:56:08;;;;;;;51.15;24.73;;;;;;;5.17;93.98;103741.44;4950742;28;20050;-76
2021/12/16 08:58:34;;;;;;;63.28;27.67;;;;;;;5.15;93.42;103753.31;4955861;28;20041;-76
2021/12/16 09:01:07;;;;;;;55.22;25.92;;;;;;;5.15;93.17;103758.47;4951119;28;20054;-75
2021/12/16 09:03:33;;;;;;;51.72;24.25;;;;;;;5.15;93.71;103756.78;4951456;28;20031;-76
2021/12/16 09:05:59;;;;;;;46.17;23.52;;;;;;;5.19;93.34;103756.31;4950355;28;20058;-76
2021/12/16 09:08:24;;;;;;;50.45;24.88;;;;;;;5.22;93.06;103766.94;4952088;28;20024;-75
2021/12/16 09:10:50;;;;;;;58.42;25.73;;;;;;;5.26;93.69;103755.22;4949315;28;20055;-75
2021/12/16 09:13:17;;;;;;;85.78;29.33;;;;;;;5.30;94.31;103765.09;4952754;28;20023;-75
2021/12/16 09:15:45;;;;;;;60.65;29.10;;;;;;;5.37;94.16;103764.88;4954602;28;20114;-75
2021/12/16 09:18:14;;;;;;;61.45;28.05;;;;;;;5.44;94.62;103762.84;4950517;28;20396;-75
2021/12/16 09:20:39;;;;;;;66.68;31.50;;;;;;;5.49;94.56;103769.34;4950106;28;20023;-75
2021/12/16 09:23:07;;;;;;;68.35;30.50;;;;;;;5.54;94.49;103763.81;4950425;28;20086;-75
2021/12/16 09:25:32;;;;;;;65.70;30.40;;;;;;;5.55;94.72;103768.22;4953376;28;20027;-75
2021/12/16 09:27:58;;;;;;;67.55;30.02;;;;;;;5.58;94.98;103770.19;4948843;28;20070;-75
2021/12/16 09:30:27;;;;;;;70.22;32.13;;;;;;;5.62;95.23;103776.53;4953482;28;20031;-75
2021/12/16 09:32:57;;;;;;;70.13;32.13;;;;;;;5.64;95.68;103772.44;4949975;28;20030;-75
2021/12/16 09:35:24;;;;;;;73.45;32.35;;;;;;;5.66;96.02;103771.81;4952997;28;20403;-75
2021/12/16 09:37:51;;;;;;;68.97;29.50;;;;;;;5.70;95.44;103773.88;4952577;28;20027;-75
2021/12/16 09:40:21;;;;;;;67.28;30.58;;;;;;;5.73;95.92;103781.91;4951497;28;20035;-75
2021/12/16 09:42:48;;;;;;;69.10;31.15;;;;;;;5.77;96.13;103780.53;4949186;28;20031;-75
2021/12/16 09:45:15;;;;;;;74.00;31.27;;;;;;;5.79;95.96;103770.31;4946574;28;20031;-75
2021/12/16 09:47:40;;;;;;;71.05;31.95;;;;;;;5.82;96.56;103773.19;4948539;28;20015;-75
2021/12/16 09:50:10;;;;;;;71.57;33.17;;;;;;;5.87;96.55;103771.94;4954834;28;20037;-75
2021/12/16 09:52:35;;;;;;;95.10;38.03;;;;;;;5.95;97.37;103781.28;4955020;28;20035;-76
2021/12/16 09:59:04;;;;;;;122.20;48.00;;;;;;;6.19;98.63;103766.16;5059839;28;20382;-76
2021/12/16 10:01:30;;;;;;;147.00;52.38;;;;;;;6.31;99.58;103775.00;5043344;28;20542;-76
2021/12/16 10:04:04;;;;;;;149.70;54.22;;;;;;;6.41;99.58;103780.22;5047102;28;20039;-76
2021/12/16 10:06:31;;;;;;;181.90;59.75;;;;;;;6.52;100.00;103770.81;5043648;28;20412;-76
2021/12/16 10:09:00;;;;;;;176.15;60.17;;;;;;;6.67;100.00;103770.34;5046967;28;20104;-76
2021/12/16 10:11:25;;;;;;;196.38;61.70;;;;;;;6.79;100.00;103780.09;5038341;28;20068;-76
2021/12/16 10:19:06;;;;;;;196.63;64.70;;;;;;;7.18;100.00;103772.97;5040624;28;20036;-76
2021/12/16 10:21:32;;;;;;;214.32;70.55;;;;;;;7.30;100.00;103778.31;5042026;28;20029;-76
2021/12/16 10:23:57;;;;;;;215.93;69.88;;;;;;;7.40;100.00;103775.72;5038575;28;20113;-75
2021/12/16 10:26:25;;;;;;;197.75;67.75;;;;;;;7.50;100.00;103772.19;5035323;28;20510;-75
2021/12/16 10:28:57;;;;;;;186.82;64.90;;;;;;;7.61;100.00;103773.09;5040364;28;20040;-74
2021/12/16 10:31:32;;;;;;;184.10;62.08;;;;;;;7.68;100.00;103765.03;5044932;28;20029;-75
2021/12/16 10:34:01;;;;;;;182.10;62.40;;;;;;;7.75;100.00;103776.81;5041616;28;20025;-75
2021/12/16 10:36:39;;;;;;;174.27;59.95;;;;;;;7.80;100.00;103770.31;5044045;28;20075;-75
2021/12/16 10:39:13;;;;;;;175.63;62.80;;;;;;;7.89;100.00;103770.19;5043149;28;20029;-75
2021/12/16 10:41:48;;;;;;;172.13;62.33;;;;;;;7.97;100.00;103776.91;5037271;28;20030;-75
2021/12/16 10:44:19;;;;;;;166.13;59.88;;;;;;;8.03;100.00;103769.63;5035759;28;20027;-75
2021/12/16 10:46:51;;;;;;;153.25;59.03;;;;;;;8.09;100.00;103764.91;5032431;28;20100;-75
2021/12/16 10:49:20;;;;;;;152.95;56.70;;;;;;;8.16;99.96;103775.00;5040331;28;20518;-75
2021/12/16 10:51:52;;;;;;;150.35;56.05;;;;;;;8.22;99.89;103779.78;5034864;28;20029;-75
2021/12/16 10:54:23;;;;;;;149.25;56.17;;;;;;;8.26;99.75;103774.06;5039465;28;20021;-75
2021/12/16 10:57:17;;;;;;;155.30;57.28;;;;;;;8.31;99.70;103771.84;5038028;28;20025;-75
2021/12/16 10:59:50;;;;;;;132.07;51.10;;;;;;;8.31;99.15;103772.75;5038974;28;20049;-75
2021/12/16 11:02:22;;;;;;;127.45;50.95;;;;;;;8.32;99.04;103771.06;5039681;28;20033;-75
2021/12/16 11:04:50;;;;;;;124.75;49.25;;;;;;;8.35;98.96;103776.50;5033006;28;20120;-73
2021/12/16 11:07:23;;;;;;;132.95;52.65;;;;;;;8.37;98.87;103785.31;5039612;28;20064;-73
2021/12/16 11:10:15;;;;;;;137.70;51.42;;;;;;;8.40;98.86;103784.66;5026018;28;20033;-73
2021/12/16 11:12:42;;;;;;;131.50;52.80;;;;;;;8.41;98.86;103779.56;5028361;28;20033;-73
2021/12/16 11:15:16;;;;;;;123.22;50.35;;;;;;;8.42;98.78;103780.50;5027187;28;20029;-73
2021/12/16 11:18:13;;;;;;;132.00;49.60;;;;;;;8.44;98.71;103790.25;5025251;28;20495;-73
2021/12/16 11:20:47;;;;;;;117.88;48.33;;;;;;;8.45;98.35;103788.56;5022800;28;20034;-73
2021/12/16 11:23:16;;;;;;;124.50;48.65;;;;;;;8.48;98.60;103797.50;5022945;28;20033;-73
2021/12/16 11:25:57;;;;;;;115.88;49.35;;;;;;;8.50;98.58;103795.97;5024524;28;20496;-74
2021/12/16 11:28:33;;;;;;;110.57;44.35;;;;;;;8.54;98.40;103791.88;5023901;28;20030;-73
2021/12/16 11:30:59;;;;;;;104.85;43.28;;;;;;;8.59;98.37;103794.84;5023380;28;20163;-73
2021/12/16 11:33:33;;;;;;;111.47;46.80;;;;;;;8.63;98.57;103783.91;5026177;28;20030;-73
2021/12/16 11:36:07;;;;;;;106.20;46.33;;;;;;;8.67;98.14;103794.66;5019673;28;20032;-73
2021/12/16 11:38:52;;;;;;;113.55;49.95;;;;;;;8.74;98.05;103798.66;5026791;28;20041;-73
2021/12/16 11:41:28;;;;;;;101.93;47.42;;;;;;;8.77;97.73;103779.81;5021798;28;20026;-73
2021/12/16 11:44:16;;;;;;;119.57;51.03;;;;;;;8.83;98.28;103786.38;5019033;28;20052;-73
2021/12/16 11:46:51;;;;;;;91.90;40.60;;;;;;;8.90;98.20;103782.56;5028225;28;20018;-73
2021/12/16 11:49:22;;;;;;;84.30;36.42;;;;;;;8.94;98.13;103773.34;5025745;28;20048;-73
2021/12/16 11:51:54;;;;;;;87.88;39.70;;;;;;;8.97;97.84;103774.47;5025270;28;20032;-73
2021/12/16 11:54:25;;;;;;;89.82;38.83;;;;;;;9.03;97.47;103780.13;5019704;28;20083;-73
2021/12/16 11:56:54;;;;;;;87.40;37.67;;;;;;;9.06;97.55;103784.69;5025310;28;20124;-73
2021/12/16 11:59:33;;;;;;;90.30;36.45;;;;;;;9.10;97.27;103780.63;5029721;28;20033;-73
2021/12/16 12:02:00;;;;;;;77.30;34.72;;;;;;;9.12;96.90;103774.72;5027101;28;20033;-73
2021/12/16 12:04:29;;;;;;;77.82;35.33;;;;;;;9.14;96.89;103769.66;5031150;28;20028;-73
2021/12/16 12:06:55;;;;;;;75.72;33.88;;;;;;;9.17;96.65;103776.00;5028178;28;20484;-73
2021/12/16 12:09:33;;;;;;;84.00;36.15;;;;;;;9.19;96.86;103776.13;5020725;28;20107;-73
2021/12/16 12:11:58;;;;;;;78.45;35.08;;;;;;;9.22;96.58;103771.16;5028712;28;20028;-73
2021/12/16 12:14:32;;;;;;;84.68;37.80;;;;;;;9.22;96.32;103769.47;5031454;28;20037;-73
2021/12/16 12:17:05;;;;;;;74.70;34.03;;;;;;;9.27;96.10;103771.50;5029772;28;20087;-73
2021/12/16 12:19:31;;;;;;;82.43;34.80;;;;;;;9.26;96.22;103764.50;5029587;28;20400;-73
2021/12/16 12:22:02;;;;;;;80.65;37.40;;;;;;;9.25;95.78;103768.78;5024780;28;20029;-73
2021/12/16 12:24:37;;;;;;;77.90;36.60;;;;;;;9.27;95.94;103775.03;5021360;28;20044;-73
2021/12/16 12:27:11;;;;;;;82.57;38.10;;;;;;;9.28;95.81;103768.13;5024529;28;20095;-73
2021/12/16 12:29:54;;;;;;;85.88;38.25;;;;;;;9.27;95.66;103759.41;5024839;28;20345;-73
2021/12/16 12:32:26;;;;;;;92.57;39.13;;;;;;;9.29;95.74;103769.94;5017928;28;20404;-73
2021/12/16 12:34:59;;;;;;;81.25;38.63;;;;;;;9.30;95.71;103764.84;5023334;28;20492;-73
2021/12/16 12:37:27;;;;;;;82.13;38.38;;;;;;;9.30;95.22;103758.72;5024533;28;20484;-73
2021/12/16 12:39:56;;;;;;;85.95;38.80;;;;;;;9.31;95.42;103766.66;5021161;28;20034;-73
2021/12/16 12:42:22;;;;;;;92.03;41.45;;;;;;;9.34;95.54;103765.97;5019890;28;20110;-73
2021/12/16 12:44:49;;;;;;;81.63;37.30;;;;;;;9.36;95.61;103769.63;5020158;28;20121;-72
2021/12/16 12:47:18;;;;;;;83.93;37.45;;;;;;;9.36;95.20;103770.50;5022218;28;20037;-73
2021/12/16 12:49:43;;;;;;;68.25;30.65;;;;;;;9.39;95.01;103767.25;5024176;28;20491;-73
2021/12/16 12:52:14;;;;;;;63.50;27.63;;;;;;;9.41;94.05;103760.44;5026267;28;20034;-73
2021/12/16 12:54:43;;;;;;;61.70;27.80;;;;;;;9.44;93.83;103771.06;5028258;28;20025;-69
2021/12/16 12:57:22;;;;;;;61.85;28.00;;;;;;;9.47;93.99;103765.19;5027515;28;20049;-73
2021/12/16 12:59:47;;;;;;;64.22;28.88;;;;;;;9.50;93.85;103760.22;5025233;28;20083;-73
2021/12/16 13:02:34;;;;;;;66.03;28.95;;;;;;;9.52;93.67;103756.94;5021044;28;20496;-72
2021/12/16 13:05:10;;;;;;;66.22;28.65;;;;;;;9.54;93.08;103752.78;5024684;28;20061;-72
2021/12/16 13:07:40;;;;;;;56.60;27.05;;;;;;;9.56;92.04;103764.19;5023581;28;20501;-72
2021/12/16 13:10:18;;;;;;;60.60;27.02;;;;;;;9.56;92.60;103753.78;5024695;28;20116;-72
2021/12/16 13:13:01;;;;;;;56.53;25.75;;;;;;;9.57;92.12;103755.63;5022501;28;20025;-72
2021/12/16 13:23:35;;;;;;;59.28;27.08;;;;;;;9.65;91.75;103747.47;5024173;28;20114;-72
2021/12/16 13:31:24;;;;;;;59.13;26.23;;;;;;;9.69;91.11;103754.69;5021168;28;20037;-72
2021/12/16 13:33:58;;;;;;;57.67;25.27;;;;;;;9.68;90.85;103753.78;5018960;28;20036;-72
2021/12/16 13:36:47;;;;;;;53.05;25.40;;;;;;;9.70;91.34;103762.66;5024927;28;20599;-72
2021/12/16 13:39:22;;;;;;;58.93;27.20;;;;;;;9.69;90.68;103758.22;5021210;28;20029;-72
2021/12/16 13:42:04;;;;;;;53.10;25.83;;;;;;;9.71;90.70;103760.94;5023062;28;20064;-72
2021/12/16 13:44:45;;;;;;;55.65;25.90;;;;;;;9.71;90.64;103759.22;5024465;28;20021;-72
2021/12/16 14:01:32;;;;;;;55.30;26.73;;;;;;;9.68;91.11;103759.00;5028172;28;20040;-72
2021/12/16 14:07:12;;;;;;;51.03;24.80;;;;;;;9.66;91.49;103770.09;5030163;28;20041;-73
2021/12/16 14:09:51;;;;;;;51.72;23.85;;;;;;;9.62;90.68;103765.47;5007996;28;20045;-72
2021/12/16 14:17:53;;;;;;;46.53;22.75;;;;;;;9.52;90.67;103776.88;5027678;28;20034;-72
2021/12/16 14:23:23;;;;;;;47.92;21.48;;;;;;;9.48;90.63;103774.84;5018217;28;20083;-72
2021/12/16 14:31:23;;;;;;;51.50;23.70;;;;;;;9.42;90.74;103779.59;5022834;28;20267;-65
2021/12/16 14:45:11;;;;;;;50.85;23.58;;;;;;;9.34;90.78;103792.91;5029226;28;20121;-65
2021/12/16 14:47:27;;;;;;;51.17;23.25;;;;;;;9.32;90.71;103797.09;5033189;28;20029;-65
2021/12/16 14:49:53;;;;;;;48.42;22.40;;;;;;;9.30;90.66;103805.56;5033245;28;20033;-65
2021/12/16 14:52:22;;;;;;;52.85;22.95;;;;;;;9.27;90.77;103801.03;5032526;28;20030;-65
2021/12/16 14:55:15;;;;;;;49.50;22.92;;;;;;;9.27;90.66;103800.13;5033427;28;20033;-65